sensor_id;sensor_type;location;lat;lon;timestamp;pressure;altitude;pressure_sealevel;temperature;humidity
64544;BME280;50936;51.660;5.616;2023-08-30T00:01:20;100522.13;;;27.76;40.31
64544;BME280;50936;51.660;5.616;2023-08-30T00:04:07;100526.84;;;27.75;40.15
64544;BME280;50936;51.660;5.616;2023-08-30T00:06:54;100513.19;;;27.74;40.13
64544;BME280;50936;51.660;5.616;2023-08-30T00:09:41;100514.47;;;27.71;40.21
64544;BME280;50936;51.660;5.616;2023-08-30T00:12:29;100508.09;;;27.71;40.19
64544;BME280;50936;51.660;5.616;2023-08-30T00:15:17;100505.94;;;27.73;40.23
64544;BME280;50936;51.660;5.616;2023-08-30T00:18:04;100499.75;;;27.71;40.42
64544;BME280;50936;51.660;5.616;2023-08-30T00:20:51;100502.53;;;27.71;40.06
64544;BME280;50936;51.660;5.616;2023-08-30T00:23:40;100506.41;;;27.70;40.03
64544;BME280;50936;51.660;5.616;2023-08-30T00:26:27;100499.16;;;27.69;40.04
64544;BME280;50936;51.660;5.616;2023-08-30T00:29:15;100491.03;;;27.67;39.97
64544;BME280;50936;51.660;5.616;2023-08-30T00:32:02;100501.31;;;27.67;39.88
64544;BME280;50936;51.660;5.616;2023-08-30T00:34:50;100500.47;;;27.66;40.06
64544;BME280;50936;51.660;5.616;2023-08-30T00:37:38;100494.03;;;27.65;39.89
64544;BME280;50936;51.660;5.616;2023-08-30T00:40:25;100495.13;;;27.64;39.97
64544;BME280;50936;51.660;5.616;2023-08-30T00:43:13;100482.09;;;27.65;40.10
64544;BME280;50936;51.660;5.616;2023-08-30T00:46:00;100483.44;;;27.62;39.95
64544;BME280;50936;51.660;5.616;2023-08-30T00:48:47;100471.47;;;27.62;40.07
64544;BME280;50936;51.660;5.616;2023-08-30T00:51:35;100484.03;;;27.64;39.80
64544;BME280;50936;51.660;5.616;2023-08-30T00:54:22;100479.56;;;27.63;39.65
64544;BME280;50936;51.660;5.616;2023-08-30T00:57:10;100477.88;;;27.62;39.88
64544;BME280;50936;51.660;5.616;2023-08-30T00:59:57;100470.63;;;27.61;39.81
64544;BME280;50936;51.660;5.616;2023-08-30T01:02:44;100479.78;;;27.62;39.67
64544;BME280;50936;51.660;5.616;2023-08-30T01:05:32;100484.50;;;27.61;39.84
64544;BME280;50936;51.660;5.616;2023-08-30T01:08:19;100477.25;;;27.60;39.78
64544;BME280;50936;51.660;5.616;2023-08-30T01:11:22;100480.34;;;27.71;39.68
64544;BME280;50936;51.660;5.616;2023-08-30T01:14:41;100479.56;;;27.63;39.61
64544;BME280;50936;51.660;5.616;2023-08-30T01:17:39;100475.31;;;27.61;39.76
64544;BME280;50936;51.660;5.616;2023-08-30T01:20:34;100478.72;;;27.63;39.55
64544;BME280;50936;51.660;5.616;2023-08-30T01:23:45;100474.78;;;27.71;39.54
64544;BME280;50936;51.660;5.616;2023-08-30T01:27:12;100469.25;;;27.71;39.51
64544;BME280;50936;51.660;5.616;2023-08-30T01:30:02;100463.63;;;27.59;39.43
64544;BME280;50936;51.660;5.616;2023-08-30T01:32:54;100456.59;;;27.56;39.49
64544;BME280;50936;51.660;5.616;2023-08-30T01:35:44;100454.91;;;27.55;39.57
64544;BME280;50936;51.660;5.616;2023-08-30T01:38:32;100460.66;;;27.54;39.56
64544;BME280;50936;51.660;5.616;2023-08-30T01:41:21;100462.59;;;27.53;39.45
64544;BME280;50936;51.660;5.616;2023-08-30T01:44:10;100465.38;;;27.53;39.40
64544;BME280;50936;51.660;5.616;2023-08-30T01:47:00;100451.97;;;27.50;39.74
64544;BME280;50936;51.660;5.616;2023-08-30T01:49:49;100459.19;;;27.51;39.39
64544;BME280;50936;51.660;5.616;2023-08-30T01:52:38;100460.91;;;27.52;39.38
64544;BME280;50936;51.660;5.616;2023-08-30T01:55:28;100459.19;;;27.51;39.57
64544;BME280;50936;51.660;5.616;2023-08-30T01:58:18;100459.19;;;27.51;39.47
64544;BME280;50936;51.660;5.616;2023-08-30T02:01:06;100454.50;;;27.52;39.47
64544;BME280;50936;51.660;5.616;2023-08-30T02:03:55;100455.34;;;27.52;39.52
64544;BME280;50936;51.660;5.616;2023-08-30T02:06:49;100463.22;;;27.55;39.37
64544;BME280;50936;51.660;5.616;2023-08-30T02:10:06;100466.00;;;27.55;39.19
64544;BME280;50936;51.660;5.616;2023-08-30T02:12:57;100463.88;;;27.51;39.34
64544;BME280;50936;51.660;5.616;2023-08-30T02:15:46;100454.13;;;27.48;39.36
64544;BME280;50936;51.660;5.616;2023-08-30T02:18:36;100454.13;;;27.48;39.30
64544;BME280;50936;51.660;5.616;2023-08-30T02:21:25;100449.00;;;27.45;39.28
64544;BME280;50936;51.660;5.616;2023-08-30T02:24:14;100439.63;;;27.46;39.17
64544;BME280;50936;51.660;5.616;2023-08-30T02:27:01;100444.31;;;27.45;39.26
64544;BME280;50936;51.660;5.616;2023-08-30T02:29:48;100439.84;;;27.44;39.33
64544;BME280;50936;51.660;5.616;2023-08-30T02:32:36;100438.75;;;27.45;39.16
64544;BME280;50936;51.660;5.616;2023-08-30T02:35:23;100436.25;;;27.44;39.50
64544;BME280;50936;51.660;5.616;2023-08-30T02:38:10;100445.63;;;27.43;39.28
64544;BME280;50936;51.660;5.616;2023-08-30T02:40:57;100440.06;;;27.43;39.38
64544;BME280;50936;51.660;5.616;2023-08-30T02:43:45;100431.75;;;27.43;39.23
64544;BME280;50936;51.660;5.616;2023-08-30T02:46:32;100428.38;;;27.41;39.39
64544;BME280;50936;51.660;5.616;2023-08-30T02:49:19;100431.75;;;27.43;39.28
64544;BME280;50936;51.660;5.616;2023-08-30T02:52:06;100427.28;;;27.42;39.24
64544;BME280;50936;51.660;5.616;2023-08-30T02:54:53;100424.50;;;27.42;39.15
64544;BME280;50936;51.660;5.616;2023-08-30T02:57:40;100419.22;;;27.40;39.30
64544;BME280;50936;51.660;5.616;2023-08-30T03:00:28;100411.13;;;27.39;39.39
64544;BME280;50936;51.660;5.616;2023-08-30T03:03:16;100411.13;;;27.39;39.30
64544;BME280;50936;51.660;5.616;2023-08-30T03:06:04;100411.13;;;27.39;39.26
64544;BME280;50936;51.660;5.616;2023-08-30T03:08:52;100409.41;;;27.38;39.24
64544;BME280;50936;51.660;5.616;2023-08-30T03:11:40;100409.41;;;27.38;39.27
64544;BME280;50936;51.660;5.616;2023-08-30T03:14:28;100402.19;;;27.37;39.30
64544;BME280;50936;51.660;5.616;2023-08-30T03:17:15;100412.41;;;27.36;39.21
64544;BME280;50936;51.660;5.616;2023-08-30T03:20:03;100406.84;;;27.36;39.21
64544;BME280;50936;51.660;5.616;2023-08-30T03:22:50;100404.34;;;27.35;39.13
64544;BME280;50936;51.660;5.616;2023-08-30T03:25:38;100399.25;;;27.32;39.11
64544;BME280;50936;51.660;5.616;2023-08-30T03:28:25;100399.84;;;27.34;39.21
64544;BME280;50936;51.660;5.616;2023-08-30T03:31:19;100391.09;;;27.37;39.24
64544;BME280;50936;51.660;5.616;2023-08-30T03:34:07;100386.84;;;27.34;39.14
64544;BME280;50936;51.660;5.616;2023-08-30T03:36:55;100380.44;;;27.34;39.28
64544;BME280;50936;51.660;5.616;2023-08-30T03:39:42;100373.19;;;27.33;39.24
64544;BME280;50936;51.660;5.616;2023-08-30T03:42:30;100369.56;;;27.32;39.30
64544;BME280;50936;51.660;5.616;2023-08-30T03:45:17;100372.34;;;27.32;39.22
64544;BME280;50936;51.660;5.616;2023-08-30T03:48:04;100364.25;;;27.31;39.30
64544;BME280;50936;51.660;5.616;2023-08-30T03:50:52;100352.56;;;27.29;39.31
64544;BME280;50936;51.660;5.616;2023-08-30T03:53:41;100345.94;;;27.30;39.42
64544;BME280;50936;51.660;5.616;2023-08-30T03:56:28;100335.69;;;27.30;39.27
64544;BME280;50936;51.660;5.616;2023-08-30T03:59:15;100333.16;;;27.29;39.26
64544;BME280;50936;51.660;5.616;2023-08-30T04:02:03;100340.63;;;27.28;39.26
64544;BME280;50936;51.660;5.616;2023-08-30T04:04:51;100327.59;;;27.29;39.16
64544;BME280;50936;51.660;5.616;2023-08-30T04:07:38;100320.59;;;27.26;39.25
64544;BME280;50936;51.660;5.616;2023-08-30T04:10:25;100320.38;;;27.27;39.33
64544;BME280;50936;51.660;5.616;2023-08-30T04:13:12;100320.38;;;27.27;39.50
64544;BME280;50936;51.660;5.616;2023-08-30T04:15:59;100305.66;;;27.27;39.41
64544;BME280;50936;51.660;5.616;2023-08-30T04:18:46;100299.25;;;27.26;39.51
64544;BME280;50936;51.660;5.616;2023-08-30T04:21:34;100313.13;;;27.26;39.39
64544;BME280;50936;51.660;5.616;2023-08-30T04:24:21;100315.25;;;27.24;39.50
64544;BME280;50936;51.660;5.616;2023-08-30T04:27:08;100307.59;;;27.26;39.37
64544;BME280;50936;51.660;5.616;2023-08-30T04:29:55;100298.63;;;27.24;39.28
64544;BME280;50936;51.660;5.616;2023-08-30T04:32:43;100296.91;;;27.23;39.41
64544;BME280;50936;51.660;5.616;2023-08-30T04:35:30;100293.91;;;27.25;39.36
64544;BME280;50936;51.660;5.616;2023-08-30T04:38:19;100301.41;;;27.24;39.54
64544;BME280;50936;51.660;5.616;2023-08-30T04:41:07;100295.22;;;27.22;39.39
64544;BME280;50936;51.660;5.616;2023-08-30T04:43:55;100296.91;;;27.23;39.38
64544;BME280;50936;51.660;5.616;2023-08-30T04:46:43;100305.47;;;27.22;39.33
64544;BME280;50936;51.660;5.616;2023-08-30T04:49:30;100295.22;;;27.22;39.49
64544;BME280;50936;51.660;5.616;2023-08-30T04:52:17;100306.31;;;27.22;39.44
64544;BME280;50936;51.660;5.616;2023-08-30T04:55:05;100301.22;;;27.19;39.42
64544;BME280;50936;51.660;5.616;2023-08-30T04:57:53;100286.31;;;27.20;39.56
64544;BME280;50936;51.660;5.616;2023-08-30T05:00:41;100291.84;;;27.20;39.47
64544;BME280;50936;51.660;5.616;2023-08-30T05:03:28;100284.59;;;27.19;39.34
64544;BME280;50936;51.660;5.616;2023-08-30T05:06:19;100283.63;;;27.51;38.92
64544;BME280;50936;51.660;5.616;2023-08-30T05:09:06;100274.09;;;27.28;39.29
64544;BME280;50936;51.660;5.616;2023-08-30T05:11:53;100271.34;;;27.21;39.32
64544;BME280;50936;51.660;5.616;2023-08-30T05:14:41;100273.50;;;27.19;39.55
64544;BME280;50936;51.660;5.616;2023-08-30T05:17:28;100267.97;;;27.19;39.52
64544;BME280;50936;51.660;5.616;2023-08-30T05:20:17;100270.97;;;27.18;39.40
64544;BME280;50936;51.660;5.616;2023-08-30T05:23:04;100257.31;;;27.16;39.51
64544;BME280;50936;51.660;5.616;2023-08-30T05:25:51;100270.13;;;27.17;39.51
64544;BME280;50936;51.660;5.616;2023-08-30T05:28:38;100271.84;;;27.18;39.61
64544;BME280;50936;51.660;5.616;2023-08-30T05:31:27;100271.84;;;27.18;39.57
64544;BME280;50936;51.660;5.616;2023-08-30T05:34:21;100264.59;;;27.17;39.58
64544;BME280;50936;51.660;5.616;2023-08-30T05:37:27;100267.97;;;27.19;39.57
64544;BME280;50936;51.660;5.616;2023-08-30T05:40:32;100259.03;;;27.17;39.67
64544;BME280;50936;51.660;5.616;2023-08-30T05:43:22;100261.59;;;27.19;39.66
64544;BME280;50936;51.660;5.616;2023-08-30T05:46:09;100246.88;;;27.18;39.50
64544;BME280;50936;51.660;5.616;2023-08-30T05:49:01;100244.13;;;27.18;39.59
64544;BME280;50936;51.660;5.616;2023-08-30T05:51:49;100245.78;;;27.19;39.61
64544;BME280;50936;51.660;5.616;2023-08-30T05:54:37;100243.84;;;27.20;39.72
64544;BME280;50936;51.660;5.616;2023-08-30T05:57:24;100247.50;;;27.20;39.78
64544;BME280;50936;51.660;5.616;2023-08-30T06:00:12;100249.16;;;27.21;39.63
64544;BME280;50936;51.660;5.616;2023-08-30T06:03:00;100249.16;;;27.21;39.66
64544;BME280;50936;51.660;5.616;2023-08-30T06:05:47;100250.03;;;27.22;39.74
64544;BME280;50936;51.660;5.616;2023-08-30T06:08:35;100252.56;;;27.23;39.98
64544;BME280;50936;51.660;5.616;2023-08-30T06:11:22;100244.25;;;27.23;39.78
64544;BME280;50936;51.660;5.616;2023-08-30T06:14:09;100255.09;;;27.25;39.92
64544;BME280;50936;51.660;5.616;2023-08-30T06:16:57;100247.00;;;27.23;39.75
64544;BME280;50936;51.660;5.616;2023-08-30T06:19:45;100239.78;;;27.22;39.97
64544;BME280;50936;51.660;5.616;2023-08-30T06:22:32;100242.34;;;27.24;39.93
64544;BME280;50936;51.660;5.616;2023-08-30T06:25:19;100250.41;;;27.25;39.93
64544;BME280;50936;51.660;5.616;2023-08-30T06:28:07;100249.56;;;27.25;39.90
64544;BME280;50936;51.660;5.616;2023-08-30T06:30:54;100242.97;;;27.26;40.02
64544;BME280;50936;51.660;5.616;2023-08-30T06:33:42;100228.22;;;27.25;39.99
64544;BME280;50936;51.660;5.616;2023-08-30T06:36:29;100237.22;;;27.27;40.29
64544;BME280;50936;51.660;5.616;2023-08-30T06:39:19;100235.88;;;27.30;40.09
64544;BME280;50936;51.660;5.616;2023-08-30T06:42:06;100239.97;;;27.27;40.04
64544;BME280;50936;51.660;5.616;2023-08-30T06:44:54;100239.13;;;27.27;40.14
64544;BME280;50936;51.660;5.616;2023-08-30T06:47:41;100238.88;;;27.29;40.03
64544;BME280;50936;51.660;5.616;2023-08-30T06:50:28;100238.88;;;27.29;40.20
64544;BME280;50936;51.660;5.616;2023-08-30T06:53:15;100248.03;;;27.29;40.17
64544;BME280;50936;51.660;5.616;2023-08-30T06:56:03;100242.75;;;27.27;39.97
64544;BME280;50936;51.660;5.616;2023-08-30T06:58:50;100249.97;;;27.29;40.16
64544;BME280;50936;51.660;5.616;2023-08-30T07:01:37;100261.06;;;27.29;40.29
64544;BME280;50936;51.660;5.616;2023-08-30T07:04:25;100262.78;;;27.30;40.28
64544;BME280;50936;51.660;5.616;2023-08-30T07:07:12;100257.22;;;27.30;40.30
64544;BME280;50936;51.660;5.616;2023-08-30T07:10:00;100246.13;;;27.30;40.39
64544;BME280;50936;51.660;5.616;2023-08-30T07:12:47;100243.59;;;27.28;40.40
64544;BME280;50936;51.660;5.616;2023-08-30T07:15:36;100248.91;;;27.30;40.54
64544;BME280;50936;51.660;5.616;2023-08-30T07:18:26;100245.28;;;27.29;40.36
64544;BME280;50936;51.660;5.616;2023-08-30T07:21:13;100243.97;;;27.32;40.43
64544;BME280;50936;51.660;5.616;2023-08-30T07:24:00;100223.47;;;27.33;40.49
64544;BME280;50936;51.660;5.616;2023-08-30T07:26:47;100218.41;;;27.30;40.39
64544;BME280;50936;51.660;5.616;2023-08-30T07:29:34;100211.78;;;27.31;40.48
64544;BME280;50936;51.660;5.616;2023-08-30T07:32:21;100209.00;;;27.31;40.62
64544;BME280;50936;51.660;5.616;2023-08-30T07:35:09;100210.72;;;27.32;40.62
64544;BME280;50936;51.660;5.616;2023-08-30T07:37:58;100199.63;;;27.32;40.63
64544;BME280;50936;51.660;5.616;2023-08-30T07:40:46;100185.16;;;27.30;40.74
64544;BME280;50936;51.660;5.616;2023-08-30T07:43:33;100197.91;;;27.31;40.81
64544;BME280;50936;51.660;5.616;2023-08-30T07:46:20;100195.38;;;27.29;40.58
64544;BME280;50936;51.660;5.616;2023-08-30T07:49:07;100198.16;;;27.29;40.89
64544;BME280;50936;51.660;5.616;2023-08-30T07:51:54;100189.00;;;27.29;40.94
64544;BME280;50936;51.660;5.616;2023-08-30T07:54:42;100185.16;;;27.30;41.20
64544;BME280;50936;51.660;5.616;2023-08-30T07:57:29;100176.22;;;27.27;41.53
64544;BME280;50936;51.660;5.616;2023-08-30T08:00:16;100173.19;;;27.29;41.28
64544;BME280;50936;51.660;5.616;2023-08-30T08:03:04;100173.19;;;27.29;41.20
64544;BME280;50936;51.660;5.616;2023-08-30T08:05:51;100177.91;;;27.29;41.44
64544;BME280;50936;51.660;5.616;2023-08-30T08:08:38;100177.91;;;27.29;41.29
64544;BME280;50936;51.660;5.616;2023-08-30T08:11:26;100174.06;;;27.30;41.54
64544;BME280;50936;51.660;5.616;2023-08-30T08:14:13;100180.44;;;27.30;41.36
64544;BME280;50936;51.660;5.616;2023-08-30T08:17:01;100174.91;;;27.30;41.34
64544;BME280;50936;51.660;5.616;2023-08-30T08:19:48;100178.50;;;27.31;41.53
64544;BME280;50936;51.660;5.616;2023-08-30T08:22:35;100179.59;;;27.30;41.34
64544;BME280;50936;51.660;5.616;2023-08-30T08:25:22;100162.97;;;27.30;41.50
64544;BME280;50936;51.660;5.616;2023-08-30T08:28:10;100171.28;;;27.30;41.54
64544;BME280;50936;51.660;5.616;2023-08-30T08:30:58;100165.13;;;27.27;41.34
64544;BME280;50936;51.660;5.616;2023-08-30T08:33:45;100165.56;;;27.24;41.36
64544;BME280;50936;51.660;5.616;2023-08-30T08:36:33;100160.25;;;27.23;41.50
64544;BME280;50936;51.660;5.616;2023-08-30T08:39:20;100165.56;;;27.24;41.70
64544;BME280;50936;51.660;5.616;2023-08-30T08:42:07;100163.84;;;27.23;41.95
64544;BME280;50936;51.660;5.616;2023-08-30T08:44:56;100161.69;;;27.25;41.79
64544;BME280;50936;51.660;5.616;2023-08-30T08:47:46;100154.47;;;27.24;41.90
64544;BME280;50936;51.660;5.616;2023-08-30T08:50:34;100149.75;;;27.25;41.95
64544;BME280;50936;51.660;5.616;2023-08-30T08:53:22;100149.16;;;27.23;41.98
64544;BME280;50936;51.660;5.616;2023-08-30T08:56:10;100155.16;;;27.20;41.94
64544;BME280;50936;51.660;5.616;2023-08-30T08:59:00;100152.00;;;27.16;42.07
64544;BME280;50936;51.660;5.616;2023-08-30T09:01:48;100148.63;;;27.14;42.20
64544;BME280;50936;51.660;5.616;2023-08-30T09:04:35;100146.94;;;27.13;42.29
64544;BME280;50936;51.660;5.616;2023-08-30T09:07:24;100145.25;;;27.12;42.43
64544;BME280;50936;51.660;5.616;2023-08-30T09:10:13;100148.63;;;27.14;42.41
64544;BME280;50936;51.660;5.616;2023-08-30T09:13:01;100150.31;;;27.15;42.32
64544;BME280;50936;51.660;5.616;2023-08-30T09:15:48;100149.50;;;27.15;42.36
64544;BME280;50936;51.660;5.616;2023-08-30T09:18:35;100150.31;;;27.15;42.37
64544;BME280;50936;51.660;5.616;2023-08-30T09:21:23;100146.94;;;27.13;42.25
64544;BME280;50936;51.660;5.616;2023-08-30T09:24:10;100142.97;;;27.09;42.42
64544;BME280;50936;51.660;5.616;2023-08-30T09:26:57;100147.84;;;27.07;42.34
64544;BME280;50936;51.660;5.616;2023-08-30T09:29:44;100143.63;;;27.04;42.52
64544;BME280;50936;51.660;5.616;2023-08-30T09:32:38;100146.19;;;27.06;42.47
64544;BME280;50936;51.660;5.616;2023-08-30T09:35:29;100144.09;;;27.01;42.61
64544;BME280;50936;51.660;5.616;2023-08-30T09:38:17;100141.56;;;27.00;42.77
64544;BME280;50936;51.660;5.616;2023-08-30T09:41:06;100148.81;;;27.01;42.73
64544;BME280;50936;51.660;5.616;2023-08-30T09:43:54;100149.88;;;27.00;43.00
64544;BME280;50936;51.660;5.616;2023-08-30T09:46:59;100137.09;;;26.99;42.89
64544;BME280;50936;51.660;5.616;2023-08-30T09:49:51;100135.41;;;26.98;42.96
64544;BME280;50936;51.660;5.616;2023-08-30T09:52:42;100142.66;;;26.99;43.16
64544;BME280;50936;51.660;5.616;2023-08-30T09:55:30;100139.88;;;26.99;43.35
64544;BME280;50936;51.660;5.616;2023-08-30T09:58:17;100139.03;;;26.98;43.28
64544;BME280;50936;51.660;5.616;2023-08-30T10:01:07;100139.41;;;27.02;43.30
64544;BME280;50936;51.660;5.616;2023-08-30T10:03:56;100138.09;;;27.04;43.46
64544;BME280;50936;51.660;5.616;2023-08-30T10:06:45;100146.19;;;27.06;43.52
64544;BME280;50936;51.660;5.616;2023-08-30T10:09:33;100140.41;;;27.07;43.25
64544;BME280;50936;51.660;5.616;2023-08-30T10:12:21;100137.63;;;27.07;43.29
64544;BME280;50936;51.660;5.616;2023-08-30T10:15:09;100136.78;;;27.07;43.26
64544;BME280;50936;51.660;5.616;2023-08-30T10:17:58;100138.47;;;27.08;43.45
64544;BME280;50936;51.660;5.616;2023-08-30T10:20:47;100133.38;;;27.05;43.62
64544;BME280;50936;51.660;5.616;2023-08-30T10:23:37;100136.16;;;27.05;43.54
64544;BME280;50936;51.660;5.616;2023-08-30T10:26:27;100127.84;;;27.05;43.69
64544;BME280;50936;51.660;5.616;2023-08-30T10:29:17;100115.94;;;27.04;43.68
64544;BME280;50936;51.660;5.616;2023-08-30T10:32:06;100125.22;;;27.10;43.75
64544;BME280;50936;51.660;5.616;2023-08-30T10:34:53;100113.69;;;27.13;43.76
64544;BME280;50936;51.660;5.616;2023-08-30T10:37:41;100111.06;;;27.18;43.83
64544;BME280;50936;51.660;5.616;2023-08-30T10:40:29;100108.41;;;27.23;43.76
64544;BME280;50936;51.660;5.616;2023-08-30T10:43:16;100112.69;;;27.26;43.86
64544;BME280;50936;51.660;5.616;2023-08-30T10:46:05;100120.28;;;27.31;43.88
64544;BME280;50936;51.660;5.616;2023-08-30T10:49:27;100109.41;;;27.48;43.68
64544;BME280;50936;51.660;5.616;2023-08-30T10:52:15;100102.75;;;27.37;43.84
64544;BME280;50936;51.660;5.616;2023-08-30T10:55:06;100110.56;;;27.40;43.79
64544;BME280;50936;51.660;5.616;2023-08-30T10:58:00;100103.94;;;27.41;43.80
64544;BME280;50936;51.660;5.616;2023-08-30T11:00:50;100102.84;;;27.42;43.81
64544;BME280;50936;51.660;5.616;2023-08-30T11:03:38;100094.53;;;27.42;43.75
64544;BME280;50936;51.660;5.616;2023-08-30T11:06:27;100101.78;;;27.43;43.71
64544;BME280;50936;51.660;5.616;2023-08-30T11:09:15;100086.84;;;27.44;43.85
64544;BME280;50936;51.660;5.616;2023-08-30T11:12:05;100119.25;;;27.43;43.79
64544;BME280;50936;51.660;5.616;2023-08-30T11:14:54;100127.34;;;27.45;43.64
64544;BME280;50936;51.660;5.616;2023-08-30T11:17:45;100123.00;;;27.49;43.69
64544;BME280;50936;51.660;5.616;2023-08-30T11:20:32;100125.19;;;27.47;43.79
64544;BME280;50936;51.660;5.616;2023-08-30T11:23:19;100132.44;;;27.48;44.04
64544;BME280;50936;51.660;5.616;2023-08-30T11:26:07;100132.44;;;27.48;43.82
64544;BME280;50936;51.660;5.616;2023-08-30T11:28:54;100137.13;;;27.48;43.88
64544;BME280;50936;51.660;5.616;2023-08-30T11:31:41;100143.03;;;27.51;43.93
64544;BME280;50936;51.660;5.616;2023-08-30T11:34:32;100137.25;;;27.53;43.87
64544;BME280;50936;51.660;5.616;2023-08-30T11:37:19;100139.19;;;27.52;43.98
64544;BME280;50936;51.660;5.616;2023-08-30T11:40:07;100131.94;;;27.51;44.02
64544;BME280;50936;51.660;5.616;2023-08-30T11:42:55;100132.56;;;27.53;43.80
64544;BME280;50936;51.660;5.616;2023-08-30T11:45:42;100133.19;;;27.55;43.93
64544;BME280;50936;51.660;5.616;2023-08-30T11:48:29;100132.09;;;27.56;43.94
64544;BME280;50936;51.660;5.616;2023-08-30T11:51:17;100124.38;;;27.58;43.82
64544;BME280;50936;51.660;5.616;2023-08-30T11:54:05;100128.84;;;27.59;43.84
64544;BME280;50936;51.660;5.616;2023-08-30T11:56:54;100133.06;;;27.62;43.89
64544;BME280;50936;51.660;5.616;2023-08-30T11:59:42;100129.22;;;27.63;43.80
64544;BME280;50936;51.660;5.616;2023-08-30T12:02:30;100136.22;;;27.65;43.89
64544;BME280;50936;51.660;5.616;2023-08-30T12:05:17;100146.22;;;27.67;43.77
64544;BME280;50936;51.660;5.616;2023-08-30T12:08:05;100152.63;;;27.67;43.86
64544;BME280;50936;51.660;5.616;2023-08-30T12:10:53;100142.38;;;27.68;43.94
64544;BME280;50936;51.660;5.616;2023-08-30T12:13:41;100155.16;;;27.69;43.82
64544;BME280;50936;51.660;5.616;2023-08-30T12:16:29;100158.53;;;27.71;43.88
64544;BME280;50936;51.660;5.616;2023-08-30T12:19:16;100154.69;;;27.72;43.98
64544;BME280;50936;51.660;5.616;2023-08-30T12:22:04;100158.09;;;27.74;43.77
64544;BME280;50936;51.660;5.616;2023-08-30T12:24:52;100168.06;;;27.75;43.83
64544;BME280;50936;51.660;5.616;2023-08-30T12:27:40;100155.91;;;27.76;43.63
64544;BME280;50936;51.660;5.616;2023-08-30T12:30:27;100163.13;;;27.77;43.76
64544;BME280;50936;51.660;5.616;2023-08-30T12:33:16;100157.13;;;27.80;43.72
64544;BME280;50936;51.660;5.616;2023-08-30T12:36:04;100156.28;;;27.79;43.81
64544;BME280;50936;51.660;5.616;2023-08-30T12:38:51;100162.66;;;27.80;43.61
64544;BME280;50936;51.660;5.616;2023-08-30T12:41:38;100164.38;;;27.81;43.71
64544;BME280;50936;51.660;5.616;2023-08-30T12:44:28;100166.06;;;27.82;43.57
64544;BME280;50936;51.660;5.616;2023-08-30T12:47:16;100156.66;;;27.83;43.69
64544;BME280;50936;51.660;5.616;2023-08-30T12:50:04;100167.53;;;27.84;43.62
64544;BME280;50936;51.660;5.616;2023-08-30T12:52:52;100166.66;;;27.84;43.74
64544;BME280;50936;51.660;5.616;2023-08-30T12:55:39;100163.41;;;27.87;43.63
64544;BME280;50936;51.660;5.616;2023-08-30T12:58:27;100173.69;;;27.87;43.56
64544;BME280;50936;51.660;5.616;2023-08-30T13:01:14;100166.78;;;27.89;43.68
64544;BME280;50936;51.660;5.616;2023-08-30T13:04:01;100162.34;;;27.88;43.55
64544;BME280;50936;51.660;5.616;2023-08-30T13:06:50;100161.25;;;27.89;43.55
64544;BME280;50936;51.660;5.616;2023-08-30T13:09:37;100155.69;;;27.89;43.39
64544;BME280;50936;51.660;5.616;2023-08-30T13:12:25;100161.03;;;27.91;43.42
64544;BME280;50936;51.660;5.616;2023-08-30T13:15:12;100164.66;;;27.91;43.42
64544;BME280;50936;51.660;5.616;2023-08-30T13:17:59;100166.38;;;27.92;43.34
64544;BME280;50936;51.660;5.616;2023-08-30T13:20:46;100170.22;;;27.91;43.26
64544;BME280;50936;51.660;5.616;2023-08-30T13:23:34;100162.97;;;27.90;43.31
64544;BME280;50936;51.660;5.616;2023-08-30T13:26:21;100174.69;;;27.92;43.28
64544;BME280;50936;51.660;5.616;2023-08-30T13:29:08;100171.91;;;27.92;43.46
64544;BME280;50936;51.660;5.616;2023-08-30T13:31:55;100167.44;;;27.91;43.32
64544;BME280;50936;51.660;5.616;2023-08-30T13:34:42;100166.38;;;27.92;43.29
64544;BME280;50936;51.660;5.616;2023-08-30T13:37:32;100168.03;;;27.93;43.21
64544;BME280;50936;51.660;5.616;2023-08-30T13:40:20;100164.19;;;27.94;43.25
64544;BME280;50936;51.660;5.616;2023-08-30T13:43:07;100168.03;;;27.93;43.12
64544;BME280;50936;51.660;5.616;2023-08-30T13:45:58;100165.41;;;27.98;42.97
64544;BME280;50936;51.660;5.616;2023-08-30T13:48:46;100159.25;;;27.96;42.92
64544;BME280;50936;51.660;5.616;2023-08-30T13:51:34;100173.97;;;27.97;42.95
64544;BME280;50936;51.660;5.616;2023-08-30T13:54:21;100150.91;;;27.96;42.85
64544;BME280;50936;51.660;5.616;2023-08-30T13:57:08;100158.19;;;27.97;42.99
64544;BME280;50936;51.660;5.616;2023-08-30T13:59:56;100159.84;;;27.98;42.96
64544;BME280;50936;51.660;5.616;2023-08-30T14:02:43;100159.00;;;27.98;42.96
64544;BME280;50936;51.660;5.616;2023-08-30T14:05:30;100174.34;;;28.00;42.74
64544;BME280;50936;51.660;5.616;2023-08-30T14:08:18;100163.22;;;28.00;42.67
64544;BME280;50936;51.660;5.616;2023-08-30T14:11:05;100168.78;;;28.00;42.71
64544;BME280;50936;51.660;5.616;2023-08-30T14:13:53;100170.94;;;27.98;42.71
64544;BME280;50936;51.660;5.616;2023-08-30T14:16:41;100168.78;;;28.00;42.49
64544;BME280;50936;51.660;5.616;2023-08-30T14:19:28;100174.34;;;28.00;42.51
64544;BME280;50936;51.660;5.616;2023-08-30T14:22:15;100183.28;;;28.02;42.58
64544;BME280;50936;51.660;5.616;2023-08-30T14:25:04;100179.41;;;28.03;42.58
64544;BME280;50936;51.660;5.616;2023-08-30T14:27:58;100180.50;;;28.02;42.51
64544;BME280;50936;51.660;5.616;2023-08-30T14:30:46;100179.41;;;28.03;42.45
64544;BME280;50936;51.660;5.616;2023-08-30T14:33:33;100187.75;;;28.03;42.33
64544;BME280;50936;51.660;5.616;2023-08-30T14:36:21;100179.41;;;28.03;42.32
64544;BME280;50936;51.660;5.616;2023-08-30T14:39:09;100180.75;;;28.01;42.28
64544;BME280;50936;51.660;5.616;2023-08-30T14:41:59;100196.06;;;28.03;42.20